Time;durP1;ratioP1;P1;durP2;ratioP2;P2;SDS_P1;SDS_P2;PMS_P1;PMS_P2;Temp;Humidity;BMP_temperature;BMP_pressure;BME280_temperature;BME280_humidity;BME280_pressure;Samples;Min_cycle;Max_cycle;Signal;HPM_P1;HPM_P2
2022/08/25 00:01:32;;;;;;;15.23;4.15;;;;;;;14.30;87.25;101017.13;1784624;79;20966;-41
2022/08/25 00:04:00;;;;;;;14.15;4.67;;;;;;;14.26;87.53;101015.50;1781962;80;20977;-41
2022/08/25 00:06:27;;;;;;;17.05;4.70;;;;;;;14.20;88.01;101021.70;1782150;79;21155;-41
2022/08/25 00:08:58;;;;;;;13.32;5.10;;;;;;;14.17;88.25;101019.19;1804520;78;20959;-41
2022/08/25 00:11:23;;;;;;;13.30;4.70;;;;;;;14.14;88.31;101017.50;1813802;79;20922;-41
2022/08/25 00:13:54;;;;;;;14.60;5.17;;;;;;;14.11;88.13;101016.27;1796028;78;21556;-41
2022/08/25 00:16:21;;;;;;;18.60;4.78;;;;;;;14.11;89.34;101015.44;1813686;78;21066;-41
2022/08/25 00:18:52;;;;;;;14.45;4.25;;;;;;;14.10;88.93;101017.17;1810976;79;21215;-41
2022/08/25 00:21:20;;;;;;;15.18;4.92;;;;;;;14.11;88.60;101014.13;1814191;79;20873;-41
2022/08/25 00:23:47;;;;;;;9.70;5.17;;;;;;;14.12;88.44;101015.84;1813832;79;20971;-41
2022/08/25 00:26:15;;;;;;;15.88;4.85;;;;;;;14.13;88.57;101017.55;1790650;79;20975;-41
2022/08/25 00:28:43;;;;;;;13.28;5.35;;;;;;;14.12;88.18;101018.45;1802216;78;20951;-41
2022/08/25 00:31:13;;;;;;;11.68;4.22;;;;;;;14.14;88.14;101020.56;1813559;79;21011;-41
2022/08/25 00:33:41;;;;;;;14.00;4.92;;;;;;;14.14;88.20;101016.20;1811964;79;20968;-41
2022/08/25 00:36:11;;;;;;;14.30;4.40;;;;;;;14.13;88.59;101009.74;1802142;79;20955;-41
2022/08/25 00:38:39;;;;;;;17.55;4.85;;;;;;;14.08;88.75;101013.75;1746405;80;20982;-41
2022/08/25 00:41:06;;;;;;;7.08;4.45;;;;;;;14.03;90.29;101011.28;1798312;79;21560;-41
2022/08/25 00:43:41;;;;;;;13.48;5.45;;;;;;;13.98;91.66;101012.27;1787800;78;21344;-41
2022/08/25 00:46:09;;;;;;;11.78;4.85;;;;;;;13.91;92.21;101016.33;1786575;79;21029;-41
2022/08/25 00:48:38;;;;;;;21.77;4.95;;;;;;;13.85;92.44;101020.81;1800904;79;20912;-41
2022/08/25 00:51:06;;;;;;;11.70;4.60;;;;;;;13.79;92.73;101026.58;1799916;79;21341;-41
2022/08/25 00:53:33;;;;;;;17.62;4.90;;;;;;;13.74;92.80;101021.89;1788961;78;21281;-41
2022/08/25 00:56:00;;;;;;;8.63;4.62;;;;;;;13.71;93.02;101027.17;1808570;79;21151;-41
2022/08/25 00:58:27;;;;;;;15.85;5.22;;;;;;;13.69;94.21;101022.45;1789202;79;20928;-41
2022/08/25 01:00:56;;;;;;;16.05;4.67;;;;;;;13.65;94.13;101027.31;1797560;79;20947;-42
2022/08/25 01:03:25;;;;;;;13.50;5.47;;;;;;;13.62;94.20;101023.48;1800090;79;20963;-41
2022/08/25 01:05:53;;;;;;;18.73;5.92;;;;;;;13.61;95.00;101025.68;1789141;79;21019;-41
2022/08/25 01:08:25;;;;;;;9.60;4.83;;;;;;;13.59;95.87;101023.56;1789065;79;21224;-41
2022/08/25 01:10:52;;;;;;;13.60;5.35;;;;;;;13.53;95.79;101031.04;1783741;79;20907;-41
2022/08/25 01:13:27;;;;;;;15.58;4.97;;;;;;;13.51;96.00;101025.02;1782124;80;21003;-41
2022/08/25 01:15:55;;;;;;;14.35;5.65;;;;;;;13.47;96.78;101024.22;1782233;80;20987;-40
2022/08/25 01:18:22;;;;;;;10.65;4.70;;;;;;;13.46;97.23;101025.57;1782230;79;21003;-40
2022/08/25 01:20:52;;;;;;;8.55;5.42;;;;;;;13.44;98.20;101022.15;1782622;79;22134;-40
2022/08/25 01:23:19;;;;;;;15.00;5.58;;;;;;;13.40;98.73;101035.62;1784079;79;20900;-40
2022/08/25 01:26:03;;;;;;;11.68;5.25;;;;;;;13.37;98.84;101033.08;1781872;79;20956;-40
2022/08/25 01:28:31;;;;;;;10.55;4.95;;;;;;;13.35;98.90;101033.56;1795798;79;21014;-40
2022/08/25 01:30:58;;;;;;;16.35;5.97;;;;;;;13.40;99.19;101023.08;1798018;79;21007;-40
2022/08/25 01:33:25;;;;;;;13.45;5.30;;;;;;;13.44;99.36;101019.09;1814265;79;21123;-40
2022/08/25 01:35:53;;;;;;;11.80;6.05;;;;;;;13.46;99.09;101026.87;1809624;79;20959;-40
2022/08/25 01:38:20;;;;;;;14.75;6.03;;;;;;;13.46;99.01;101022.97;1784518;79;20913;-40
2022/08/25 01:40:47;;;;;;;13.55;5.50;;;;;;;13.47;98.87;101020.31;1781908;80;20905;-40
2022/08/25 01:43:31;;;;;;;16.20;5.85;;;;;;;13.48;98.78;101019.89;1781926;79;20960;-40
2022/08/25 01:45:58;;;;;;;9.78;5.62;;;;;;;13.48;98.88;101017.28;1754311;80;21108;-40
2022/08/25 01:48:25;;;;;;;16.12;6.03;;;;;;;13.47;99.12;101021.62;1795618;79;20920;-40
2022/08/25 01:50:52;;;;;;;9.65;6.17;;;;;;;13.48;99.00;101014.69;1814048;79;20943;-40
2022/08/25 01:53:28;;;;;;;10.03;5.55;;;;;;;13.45;99.07;101016.89;1813937;79;20943;-40
2022/08/25 01:56:00;;;;;;;13.28;5.80;;;;;;;13.42;99.64;101025.20;1812269;79;26798;-40
2022/08/25 01:58:31;;;;;;;12.63;5.95;;;;;;;13.36;100.00;101026.17;1812162;79;21170;-40
2022/08/25 02:01:01;;;;;;;21.02;6.37;;;;;;;13.31;100.00;101028.02;1794270;79;21563;-40
2022/08/25 02:03:28;;;;;;;11.93;6.00;;;;;;;13.27;100.00;101028.98;1781973;79;20975;-40
2022/08/25 02:05:55;;;;;;;10.45;5.75;;;;;;;13.22;100.00;101022.56;1781961;79;21025;-41
2022/08/25 02:08:22;;;;;;;11.22;6.65;;;;;;;13.16;100.00;101026.13;1801475;79;21059;-40
2022/08/25 02:10:52;;;;;;;11.08;5.95;;;;;;;13.14;100.00;101033.11;1813530;78;21115;-41
2022/08/25 02:13:19;;;;;;;8.93;5.62;;;;;;;13.11;100.00;101025.80;1813944;77;20967;-40
2022/08/25 02:15:50;;;;;;;17.05;6.33;;;;;;;13.07;100.00;101035.42;1784756;79;20896;-40
2022/08/25 02:18:18;;;;;;;11.15;6.33;;;;;;;13.03;100.00;101037.21;1798841;79;21481;-40
2022/08/25 02:20:45;;;;;;;19.40;6.42;;;;;;;13.02;100.00;101035.50;1814077;78;21694;-40
2022/08/25 02:23:12;;;;;;;9.70;6.35;;;;;;;12.99;100.00;101036.86;1814137;79;21215;-40
2022/08/25 02:25:39;;;;;;;18.77;6.60;;;;;;;12.97;100.00;101041.66;1813931;79;20960;-40
2022/08/25 02:28:07;;;;;;;11.33;5.90;;;;;;;12.93;100.00;101040.42;1794186;78;20967;-40
2022/08/25 02:30:36;;;;;;;14.47;6.75;;;;;;;12.90;100.00;101041.79;1781849;79;21002;-40
2022/08/25 02:33:03;;;;;;;10.38;6.40;;;;;;;12.86;100.00;101039.27;1782138;80;20947;-40
2022/08/25 02:35:31;;;;;;;12.55;5.53;;;;;;;12.82;100.00;101037.19;1781994;79;21086;-40
2022/08/25 02:37:58;;;;;;;12.18;5.92;;;;;;;12.79;100.00;101041.98;1798703;79;20963;-40
2022/08/25 02:40:25;;;;;;;14.03;6.12;;;;;;;12.76;100.00;101040.75;1812772;79;20987;-40
2022/08/25 02:42:52;;;;;;;16.65;6.90;;;;;;;12.72;100.00;101035.20;1813668;79;21030;-40
2022/08/25 02:45:19;;;;;;;15.08;6.65;;;;;;;12.72;100.00;101033.03;1814092;78;20948;-40
2022/08/25 02:47:46;;;;;;;15.68;6.65;;;;;;;12.72;100.00;101043.42;1813080;79;22155;-41
2022/08/25 02:50:13;;;;;;;16.48;7.25;;;;;;;12.72;100.00;101042.12;1814087;79;20956;-40
2022/08/25 02:52:40;;;;;;;20.32;6.83;;;;;;;12.71;100.00;101050.37;1809594;79;20951;-41
2022/08/25 02:55:11;;;;;;;11.68;7.00;;;;;;;12.73;100.00;101045.12;1811504;79;20974;-40
2022/08/25 02:57:40;;;;;;;14.53;6.37;;;;;;;12.76;100.00;101043.34;1782715;79;20959;-40
2022/08/25 03:00:10;;;;;;;19.70;6.65;;;;;;;12.82;100.00;101039.78;1813398;78;21035;-40
2022/08/25 03:02:37;;;;;;;11.05;6.40;;;;;;;12.86;100.00;101045.76;1813176;79;21031;-40
2022/08/25 03:05:06;;;;;;;18.17;7.72;;;;;;;12.86;100.00;101040.14;1807665;79;20940;-40
2022/08/25 03:07:37;;;;;;;11.80;7.08;;;;;;;12.90;100.00;101044.39;1782153;79;20978;-40
2022/08/25 03:10:07;;;;;;;12.68;6.78;;;;;;;12.97;100.00;101046.86;1783693;79;22260;-41
2022/08/25 03:12:34;;;;;;;20.57;6.47;;;;;;;13.03;100.00;101054.56;1809300;77;21135;-41
2022/08/25 03:15:01;;;;;;;18.67;6.95;;;;;;;13.07;100.00;101046.66;1828925;78;20947;-41
2022/08/25 03:17:28;;;;;;;10.32;6.85;;;;;;;13.15;100.00;101046.52;1831215;77;20986;-41
2022/08/25 03:19:55;;;;;;;13.70;7.55;;;;;;;13.22;100.00;101054.59;1831357;77;21461;-41
2022/08/25 03:22:22;;;;;;;18.57;7.15;;;;;;;13.30;100.00;101049.25;1829696;78;21052;-40
2022/08/25 03:24:49;;;;;;;17.77;6.87;;;;;;;13.38;100.00;101045.20;1829978;78;21315;-41
2022/08/25 03:27:16;;;;;;;15.43;6.85;;;;;;;13.46;100.00;101050.27;1799798;78;21284;-41
2022/08/25 03:29:44;;;;;;;18.15;7.33;;;;;;;13.56;100.00;101041.84;1798898;77;21001;-41
2022/08/25 03:32:11;;;;;;;16.15;6.60;;;;;;;13.67;100.00;101043.74;1798984;77;21469;-41
2022/08/25 03:34:38;;;;;;;18.80;7.20;;;;;;;13.76;100.00;101043.98;1801732;78;21467;-41
2022/08/25 03:37:07;;;;;;;17.62;7.53;;;;;;;13.86;100.00;101052.45;1799628;78;21249;-42
2022/08/25 03:39:35;;;;;;;25.40;6.85;;;;;;;13.95;100.00;101045.72;1798883;79;20947;-41
2022/08/25 03:42:03;;;;;;;11.85;6.87;;;;;;;14.06;100.00;101041.14;1804322;78;20942;-41
2022/08/25 03:44:30;;;;;;;19.87;7.30;;;;;;;14.20;100.00;101038.20;1831400;78;20923;-42
2022/08/25 03:46:58;;;;;;;12.90;6.75;;;;;;;14.31;100.00;101035.33;1807378;78;20972;-42
2022/08/25 03:49:25;;;;;;;18.30;6.87;;;;;;;14.48;98.98;101039.24;1798912;78;21241;-39
2022/08/25 03:51:52;;;;;;;22.37;6.55;;;;;;;14.66;97.42;101040.08;1798816;79;20919;-39
2022/08/25 03:54:22;;;;;;;12.03;5.92;;;;;;;14.83;96.68;101034.91;1769944;79;20978;-40
2022/08/25 03:56:50;;;;;;;25.00;7.10;;;;;;;15.01;95.79;101041.36;1802839;78;22279;-40
2022/08/25 03:59:16;;;;;;;20.40;6.90;;;;;;;15.18;95.17;101038.27;1800372;78;21508;-40
2022/08/25 04:01:45;;;;;;;21.05;6.25;;;;;;;15.33;94.87;101036.14;1807708;78;21201;-40
2022/08/25 04:04:13;;;;;;;14.38;6.70;;;;;;;15.48;94.44;101038.74;1831821;77;21020;-40
2022/08/25 04:06:42;;;;;;;14.55;6.62;;;;;;;15.69;91.86;101030.70;1831451;78;21002;-40
2022/08/25 04:09:10;;;;;;;15.18;6.50;;;;;;;15.98;90.79;101037.27;1831489;77;21493;-41
2022/08/25 04:11:36;;;;;;;19.30;5.87;;;;;;;16.23;90.43;101032.09;1815591;77;20999;-41
2022/08/25 04:15:45;;;;;;;16.10;8.08;;;;;;;16.70;89.12;101035.75;1797100;78;22643;-41
2022/08/25 04:18:14;;;;;;;19.17;7.37;;;;;;;16.94;87.93;101029.66;1764111;80;20944;-42
2022/08/25 04:20:42;;;;;;;17.75;7.10;;;;;;;17.26;87.21;101029.42;1783343;80;21273;-42
2022/08/25 04:23:09;;;;;;;26.12;7.22;;;;;;;17.59;85.60;101021.66;1778343;80;20939;-39
2022/08/25 04:25:41;;;;;;;14.05;7.50;;;;;;;17.89;84.23;101016.12;1774027;80;20928;-39
2022/08/25 04:28:09;;;;;;;21.40;7.37;;;;;;;18.20;82.38;101014.88;1696011;83;21566;-41
2022/08/25 04:30:36;;;;;;;37.63;8.43;;;;;;;18.50;80.76;101015.36;1723384;83;20951;-41
2022/08/25 04:33:03;;;;;;;28.15;7.90;;;;;;;18.78;79.23;101013.29;1717092;83;22199;-41
2022/08/25 04:35:31;;;;;;;21.15;7.42;;;;;;;19.03;78.03;101017.47;1718058;83;21004;-41
2022/08/25 04:37:58;;;;;;;22.67;7.35;;;;;;;19.29;77.11;101016.30;1710203;83;20949;-41
2022/08/25 04:40:25;;;;;;;26.33;7.72;;;;;;;19.56;76.03;101011.98;1710196;84;20997;-41
2022/08/25 04:42:52;;;;;;;14.45;6.50;;;;;;;19.84;75.65;101009.34;1721201;83;21072;-41
2022/08/25 04:45:19;;;;;;;27.32;6.58;;;;;;;20.11;74.47;101012.87;1721187;82;21282;-41
2022/08/25 04:47:46;;;;;;;21.10;6.62;;;;;;;20.38;73.55;101018.98;1692222;84;20948;-42
2022/08/25 04:50:13;;;;;;;17.75;7.08;;;;;;;20.56;72.59;101027.70;1666467;84;21494;-42
2022/08/25 04:52:40;;;;;;;21.97;7.47;;;;;;;20.75;73.28;101021.48;1718843;82;21015;-42
2022/08/25 04:55:07;;;;;;;17.52;6.90;;;;;;;20.96;72.80;101026.97;1719611;82;20947;-42
2022/08/25 04:57:34;;;;;;;23.80;8.25;;;;;;;21.17;71.37;101027.20;1710138;82;21535;-42
2022/08/25 05:00:03;;;;;;;15.50;7.42;;;;;;;21.34;69.83;101038.13;1704327;84;20939;-41
2022/08/25 05:02:30;;;;;;;86.82;9.18;;;;;;;21.46;69.44;101037.92;1695422;83;21503;-42
2022/08/25 05:04:57;;;;;;;22.73;6.95;;;;;;;21.62;68.81;101025.61;1698609;83;20999;-42
2022/08/25 05:07:24;;;;;;;21.20;6.42;;;;;;;21.82;67.30;101027.13;1691645;83;20911;-41
2022/08/25 05:09:51;;;;;;;18.07;5.70;;;;;;;22.08;65.64;101033.17;1689439;84;22033;-41
2022/08/25 05:12:19;;;;;;;31.45;6.53;;;;;;;22.33;63.65;101024.66;1693776;84;20951;-41
2022/08/25 05:14:47;;;;;;;11.43;5.65;;;;;;;22.56;62.12;101026.43;1686091;84;20979;-41
2022/08/25 05:17:14;;;;;;;17.42;5.65;;;;;;;22.72;61.05;101021.07;1679951;84;20928;-41
2022/08/25 05:19:41;;;;;;;11.10;5.12;;;;;;;22.80;59.49;101022.79;1679650;84;21015;-41
2022/08/25 05:22:09;;;;;;;11.35;5.22;;;;;;;22.86;59.53;101022.03;1679724;85;21193;-42
2022/08/25 05:24:37;;;;;;;19.90;5.85;;;;;;;22.94;58.42;101017.12;1681404;84;21520;-41
2022/08/25 05:27:04;;;;;;;15.05;5.45;;;;;;;22.99;58.85;101020.34;1709192;83;20946;-40
2022/08/25 05:29:32;;;;;;;13.55;4.60;;;;;;;23.04;58.65;101012.12;1713970;82;20950;-41
2022/08/25 05:31:59;;;;;;;14.25;5.00;;;;;;;23.13;58.66;101016.84;1714091;83;21002;-40
2022/08/25 05:34:26;;;;;;;14.05;4.92;;;;;;;23.18;54.75;101017.39;1715703;82;22136;-41
2022/08/25 05:36:53;;;;;;;14.10;5.42;;;;;;;23.16;54.95;101016.64;1716066;82;21013;-41
2022/08/25 05:39:20;;;;;;;14.53;5.10;;;;;;;23.09;53.09;101014.85;1715644;82;21555;-41
2022/08/25 05:41:47;;;;;;;9.03;4.87;;;;;;;22.95;54.22;101013.53;1713871;82;20949;-40
2022/08/25 05:44:16;;;;;;;16.60;5.78;;;;;;;22.83;53.15;101013.81;1715601;82;21029;-41
2022/08/25 05:46:43;;;;;;;22.13;6.05;;;;;;;22.70;53.91;101012.89;1715303;82;21090;-41
2022/08/25 05:49:10;;;;;;;18.60;6.17;;;;;;;22.61;54.37;101012.98;1721438;82;21056;-41
2022/08/25 05:51:37;;;;;;;28.87;6.15;;;;;;;22.52;54.94;101012.60;1736410;82;21476;-41
2022/08/25 05:54:05;;;;;;;17.10;5.55;;;;;;;22.50;54.56;101009.66;1734068;81;20959;-41
2022/08/25 05:56:32;;;;;;;15.88;5.72;;;;;;;22.49;55.21;101010.61;1723001;81;21385;-41
2022/08/25 05:58:59;;;;;;;16.07;5.47;;;;;;;22.49;56.42;101004.88;1721573;82;21350;-41
2022/08/25 06:04:18;;;;;;;13.65;4.62;;;;;;;22.57;57.66;101003.06;1709787;82;20951;-41
2022/08/25 06:06:45;;;;;;;20.10;5.40;;;;;;;22.63;57.49;101005.36;1732684;82;20936;-40
2022/08/25 06:09:12;;;;;;;14.33;5.62;;;;;;;22.68;56.58;100996.69;1728359;82;20897;-42
2022/08/25 06:11:41;;;;;;;22.10;5.72;;;;;;;22.75;56.52;101001.58;1715331;82;21001;-41
2022/08/25 06:14:09;;;;;;;19.82;5.35;;;;;;;22.80;55.73;101003.45;1713821;82;20976;-41
2022/08/25 06:16:37;;;;;;;21.95;5.53;;;;;;;22.87;55.31;101002.16;1724799;82;20984;-41
2022/08/25 06:19:04;;;;;;;13.85;5.12;;;;;;;22.93;55.90;100998.27;1708338;82;20951;-42
2022/08/25 06:21:32;;;;;;;18.75;4.90;;;;;;;22.99;54.16;100999.23;1714036;82;20996;-42
2022/08/25 06:23:58;;;;;;;20.95;4.72;;;;;;;23.08;53.58;101000.41;1721477;82;21283;-41
2022/08/25 06:26:25;;;;;;;21.62;5.87;;;;;;;23.21;53.75;101002.67;1708287;82;21012;-42
2022/08/25 06:28:52;;;;;;;13.35;5.30;;;;;;;23.32;51.72;101003.34;1681520;82;20983;-41
2022/08/25 06:31:21;;;;;;;21.82;5.40;;;;;;;23.43;52.97;100997.83;1658700;85;21000;-42
2022/08/25 06:33:48;;;;;;;13.78;4.80;;;;;;;23.54;51.34;100999.33;1714768;82;21565;-41
2022/08/25 06:36:15;;;;;;;18.12;5.15;;;;;;;23.65;51.24;100995.50;1711140;82;21148;-41
2022/08/25 06:38:43;;;;;;;20.37;5.08;;;;;;;23.78;51.69;100987.61;1698052;82;20968;-41
2022/08/25 06:41:09;;;;;;;22.42;5.22;;;;;;;23.90;50.98;100991.73;1647108;85;20941;-41
2022/08/25 06:43:37;;;;;;;22.42;4.78;;;;;;;24.00;49.75;100990.15;1681636;83;21016;-41
2022/08/25 06:46:11;;;;;;;18.45;4.55;;;;;;;24.13;51.20;100990.20;1657616;85;21209;-42
2022/08/25 06:48:39;;;;;;;17.10;4.35;;;;;;;24.27;50.80;100988.43;1693038;83;22402;-42
2022/08/25 06:51:09;;;;;;;16.42;4.47;;;;;;;24.41;50.96;100994.09;1702463;82;21512;-41
2022/08/25 06:53:36;;;;;;;15.38;4.58;;;;;;;24.55;51.75;100979.42;1700841;82;21007;-42
2022/08/25 06:56:05;;;;;;;16.37;4.67;;;;;;;24.73;52.24;100975.13;1659722;85;21029;-42
2022/08/25 06:58:32;;;;;;;14.55;4.10;;;;;;;24.87;50.77;100973.69;1661412;85;21025;-42
2022/08/25 07:01:14;;;;;;;16.25;4.47;;;;;;;25.03;50.23;100973.93;1661198;85;21125;-42
2022/08/25 07:03:41;;;;;;;18.60;4.20;;;;;;;25.19;49.23;100977.64;1704949;82;21520;-42
2022/08/25 07:06:08;;;;;;;8.53;3.95;;;;;;;25.32;46.71;100969.18;1705262;82;21480;-41
2022/08/25 07:08:36;;;;;;;14.43;3.92;;;;;;;25.46;47.21;100972.61;1704719;82;21004;-42
2022/08/25 07:11:07;;;;;;;16.67;3.65;;;;;;;25.58;47.92;100972.21;1705742;82;21102;-40
2022/08/25 07:13:35;;;;;;;17.10;4.15;;;;;;;25.73;45.02;100973.73;1693496;82;21403;-42
2022/08/25 07:16:04;;;;;;;16.30;3.87;;;;;;;25.89;45.20;100968.12;1694380;83;20987;-42
2022/08/25 07:18:31;;;;;;;14.07;3.75;;;;;;;26.00;44.81;100964.66;1697536;84;21512;-42
2022/08/25 07:20:58;;;;;;;12.75;3.22;;;;;;;26.13;43.98;100966.36;1663925;86;20962;-42
2022/08/25 07:23:26;;;;;;;21.00;3.85;;;;;;;26.24;43.63;100964.59;1664075;86;20979;-42
2022/08/25 07:25:54;;;;;;;15.80;2.92;;;;;;;26.37;44.12;100960.52;1664084;84;21255;-42
2022/08/25 07:28:21;;;;;;;10.93;3.10;;;;;;;26.56;43.28;100961.73;1663884;86;21244;-42
2022/08/25 07:30:49;;;;;;;7.30;2.90;;;;;;;26.72;41.89;100959.21;1663769;86;21042;-41
2022/08/25 07:33:16;;;;;;;7.17;2.75;;;;;;;26.86;41.20;100959.47;1663822;86;20932;-41
2022/08/25 07:35:44;;;;;;;11.93;3.08;;;;;;;27.02;39.21;100949.78;1663879;86;21512;-42
2022/08/25 07:38:11;;;;;;;6.95;2.98;;;;;;;27.17;38.47;100950.34;1664017;86;21151;-43
2022/08/25 07:40:38;;;;;;;7.92;2.65;;;;;;;27.33;39.45;100948.13;1639095;86;21054;-41
2022/08/25 07:43:07;;;;;;;15.35;2.60;;;;;;;27.52;38.20;100946.15;1663841;86;20947;-41
2022/08/25 07:45:36;;;;;;;8.25;2.50;;;;;;;27.72;36.96;100938.80;1670354;84;21026;-42
2022/08/25 07:48:08;;;;;;;5.70;2.55;;;;;;;27.91;37.83;100942.93;1674056;84;20960;-42
2022/08/25 07:50:37;;;;;;;12.18;2.15;;;;;;;28.09;36.87;100933.86;1674008;85;21125;-41
2022/08/25 07:53:05;;;;;;;12.73;2.70;;;;;;;28.25;36.63;100929.92;1666908;85;21041;-41
2022/08/25 07:55:35;;;;;;;8.30;2.40;;;;;;;28.43;36.64;100929.31;1663722;85;21490;-41
2022/08/25 07:58:02;;;;;;;12.05;3.60;;;;;;;28.53;35.70;100926.19;1642286;84;22083;-41
2022/08/25 08:00:31;;;;;;;15.40;4.12;;;;;;;28.67;37.08;100916.98;1694689;83;20963;-41
2022/08/25 08:03:01;;;;;;;15.95;3.27;;;;;;;28.82;36.62;100928.97;1693214;83;21910;-42
2022/08/25 08:05:28;;;;;;;17.30;3.20;;;;;;;29.02;34.72;100922.84;1691263;83;21547;-43
2022/08/25 08:07:56;;;;;;;13.83;2.40;;;;;;;29.14;35.41;100909.72;1695070;84;20935;-43
2022/08/25 08:10:24;;;;;;;5.30;2.52;;;;;;;29.29;34.89;100914.14;1697878;82;20995;-42
2022/08/25 08:12:52;;;;;;;16.48;3.58;;;;;;;29.42;32.75;100907.73;1687055;83;20971;-44
2022/08/25 08:15:19;;;;;;;11.85;2.60;;;;;;;29.37;31.01;100894.31;1696343;83;21230;-43
2022/08/25 08:17:46;;;;;;;8.08;2.20;;;;;;;29.33;32.66;100904.05;1688412;83;20961;-42
2022/08/25 08:20:15;;;;;;;12.25;2.65;;;;;;;29.49;34.12;100899.03;1689885;83;21485;-42
2022/08/25 08:22:42;;;;;;;14.55;1.95;;;;;;;29.78;33.62;100892.81;1663220;85;20976;-43
2022/08/25 08:25:10;;;;;;;8.15;2.10;;;;;;;30.14;33.86;100893.98;1678300;84;21059;-42
2022/08/25 08:27:38;;;;;;;12.25;1.85;;;;;;;30.46;31.19;100892.74;1673295;84;21949;-42
2022/08/25 08:30:06;;;;;;;14.43;1.85;;;;;;;30.51;28.66;100887.28;1668578;84;21562;-41
2022/08/25 08:32:33;;;;;;;9.03;1.85;;;;;;;30.50;28.71;100888.27;1654323;85;21028;-43
2022/08/25 08:35:00;;;;;;;8.70;2.20;;;;;;;30.56;28.52;100885.51;1674316;85;21046;-42
2022/08/25 08:37:28;;;;;;;6.53;1.87;;;;;;;30.71;28.60;100889.88;1657224;85;21664;-42
2022/08/25 08:39:55;;;;;;;7.00;1.85;;;;;;;30.83;27.91;100877.14;1662468;84;21125;-41
2022/08/25 08:42:45;;;;;;;4.40;1.50;;;;;;;30.80;26.89;100878.27;1685785;83;20982;-41
2022/08/25 08:45:36;;;;;;;9.60;1.60;;;;;;;30.84;26.49;100868.13;1690030;84;20945;-41
2022/08/25 08:48:15;;;;;;;8.98;1.42;;;;;;;30.95;27.06;100862.58;1682626;84;22216;-42
2022/08/25 08:51:00;;;;;;;7.33;1.75;;;;;;;31.18;25.15;100858.08;1640220;86;21055;-42
2022/08/25 08:53:45;;;;;;;13.48;1.60;;;;;;;31.12;25.44;100857.37;1673383;85;21754;-41
2022/08/25 08:56:25;;;;;;;6.40;1.50;;;;;;;31.03;24.88;100860.97;1654071;85;21513;-42
2022/08/25 08:58:56;;;;;;;7.75;1.57;;;;;;;31.05;24.39;100853.64;1667839;84;20974;-43
2022/08/25 09:01:31;;;;;;;9.48;2.10;;;;;;;31.15;25.40;100853.05;1655876;85;22137;-42
2022/08/25 09:04:12;;;;;;;8.03;1.75;;;;;;;31.25;25.37;100852.51;1683216;85;21055;-42
2022/08/25 09:06:46;;;;;;;6.80;1.70;;;;;;;31.45;26.46;100848.80;1685421;85;21262;-42
2022/08/25 09:22:59;;;;;;;3.72;2.10;;;;;;;32.44;24.49;100845.82;1778201;78;22106;-42
2022/08/25 09:25:55;;;;;;;7.10;2.17;;;;;;;32.43;23.18;100846.83;1773873;80;20979;-44
2022/08/25 09:28:46;;;;;;;7.85;1.50;;;;;;;32.38;24.77;100845.99;1782473;80;22838;-42
2022/08/25 09:31:37;;;;;;;4.70;1.92;;;;;;;32.47;25.39;100834.30;1781492;80;21384;-42
2022/08/25 09:34:08;;;;;;;7.12;1.90;;;;;;;32.70;25.56;100842.20;1758348;80;21429;-42
2022/08/25 09:36:35;;;;;;;3.22;1.60;;;;;;;32.72;24.53;100841.04;1751069;81;20879;-42
2022/08/25 09:39:04;;;;;;;4.92;2.05;;;;;;;32.75;23.34;100829.16;1758472;81;20832;-41
2022/08/25 09:41:49;;;;;;;12.70;2.30;;;;;;;32.74;23.13;100828.83;1782242;80;21184;-42
2022/08/25 09:44:43;;;;;;;12.85;1.65;;;;;;;32.60;24.64;100829.80;1770178;80;20927;-42
2022/08/25 09:47:23;;;;;;;4.92;1.60;;;;;;;32.47;23.76;100836.15;1735255;81;20939;-41
2022/08/25 09:49:59;;;;;;;5.25;1.98;;;;;;;32.44;23.78;100825.73;1760280;80;20992;-42
2022/08/25 09:52:36;;;;;;;5.85;1.80;;;;;;;32.52;24.84;100825.78;1761075;80;21015;-40
2022/08/25 09:55:13;;;;;;;11.38;1.80;;;;;;;32.58;22.17;100833.14;1728716;82;21179;-42
2022/08/25 09:57:49;;;;;;;6.62;1.57;;;;;;;32.50;22.33;100828.61;1741632;81;21049;-42
2022/08/25 10:00:32;;;;;;;10.10;2.03;;;;;;;32.48;23.17;100812.38;1766721;80;20983;-43
2022/08/25 10:03:20;;;;;;;3.02;1.15;;;;;;;32.48;23.17;100812.38;1759811;81;21625;-43
2022/08/25 10:06:02;;;;;;;12.60;1.80;;;;;;;32.57;23.22;100817.23;1775070;80;20966;-42
2022/08/25 10:08:40;;;;;;;11.45;2.05;;;;;;;32.61;22.66;100817.27;1773206;80;21281;-42
2022/08/25 10:11:11;;;;;;;7.50;2.33;;;;;;;32.57;23.43;100822.09;1721246;82;20948;-42
2022/08/25 10:13:50;;;;;;;4.78;1.60;;;;;;;32.64;23.05;100811.56;1755620;81;22125;-43
2022/08/25 10:16:26;;;;;;;5.58;1.80;;;;;;;32.82;22.84;100808.22;1720264;81;20995;-42
2022/08/25 10:19:09;;;;;;;4.97;1.50;;;;;;;33.02;22.90;100803.90;1682024;85;20944;-41
2022/08/25 10:21:37;;;;;;;3.87;1.70;;;;;;;32.99;23.52;100809.60;1761453;80;21989;-41
2022/08/25 10:24:05;;;;;;;8.28;2.05;;;;;;;32.97;24.04;100799.55;1740338;82;21092;-42
2022/08/25 10:26:53;;;;;;;9.13;1.90;;;;;;;33.17;24.19;100804.05;1740204;81;20880;-41
2022/08/25 10:29:55;;;;;;;7.00;1.60;;;;;;;33.35;23.10;100801.20;1741241;80;20936;-41
2022/08/25 10:32:39;;;;;;;6.60;1.60;;;;;;;33.24;21.07;100788.98;1752728;81;20973;-41
2022/08/25 10:35:19;;;;;;;6.87;1.57;;;;;;;32.98;21.02;100793.70;1761839;81;21210;-42
2022/08/25 10:38:04;;;;;;;4.08;1.42;;;;;;;32.78;20.38;100789.46;1763974;81;21016;-41
2022/08/25 10:40:49;;;;;;;2.70;1.42;;;;;;;32.66;22.64;100782.25;1746841;81;21037;-41
2022/08/25 10:43:37;;;;;;;5.17;1.50;;;;;;;32.79;22.17;100782.27;1766636;80;21448;-43
2022/08/25 10:46:28;;;;;;;3.47;1.35;;;;;;;32.89;23.75;100778.95;1736619;81;20927;-42
2022/08/25 10:49:02;;;;;;;11.43;5.95;;;;;;;33.02;22.59;100777.61;1752013;81;21052;-42
2022/08/25 10:51:41;;;;;;;8.25;2.02;;;;;;;33.17;22.23;100771.88;1766393;81;20966;-42
2022/08/25 10:54:47;;;;;;;4.17;1.55;;;;;;;33.16;21.77;100772.89;1766351;80;20848;-43
2022/08/25 10:57:47;;;;;;;4.35;2.20;;;;;;;33.02;22.53;100777.61;1735093;81;21021;-42
2022/08/25 11:00:18;;;;;;;5.33;1.77;;;;;;;33.01;22.60;100767.38;1751463;81;21010;-42
2022/08/25 11:03:31;;;;;;;3.15;2.55;;;;;;;32.97;22.52;100774.09;1766304;79;22058;-43
2022/08/25 11:06:02;;;;;;;4.37;2.20;;;;;;;32.99;22.81;100756.52;1765769;81;21539;-42
2022/08/25 11:08:40;;;;;;;9.43;2.65;;;;;;;33.01;21.95;100753.16;1766146;80;21025;-42
2022/08/25 11:11:25;;;;;;;26.52;12.28;;;;;;;33.14;21.28;100752.13;1759710;79;20985;-42
2022/08/25 11:13:59;;;;;;;26.15;11.70;;;;;;;33.00;21.60;100756.84;1751233;81;20952;-41
2022/08/25 11:16:46;;;;;;;9.48;4.42;;;;;;;32.96;21.68;100746.44;1766351;81;21916;-42
2022/08/25 11:19:36;;;;;;;10.88;2.10;;;;;;;32.99;22.55;100741.77;1761548;81;20930;-42
2022/08/25 11:22:17;;;;;;;6.72;1.70;;;;;;;33.06;21.53;100738.73;1765317;81;20920;-42
2022/08/25 11:25:03;;;;;;;7.10;3.95;;;;;;;33.10;20.84;100732.88;1764598;81;20893;-42
2022/08/25 11:27:37;;;;;;;4.75;1.47;;;;;;;33.03;22.17;100734.55;1765294;80;20965;-42
2022/08/25 11:30:08;;;;;;;3.25;2.27;;;;;;;33.19;22.96;100734.19;1731946;81;21066;-43
2022/08/25 11:32:37;;;;;;;6.30;1.57;;;;;;;33.15;20.91;100732.86;1763052;81;20979;-42
2022/08/25 11:35:09;;;;;;;5.95;2.25;;;;;;;33.10;22.40;100737.39;1764068;80;21060;-42
2022/08/25 11:37:45;;;;;;;8.53;2.60;;;;;;;33.13;21.22;100720.14;1732513;82;21609;-42
2022/08/25 11:40:51;;;;;;;5.25;1.32;;;;;;;33.01;21.55;100728.52;1763285;81;21514;-42
2022/08/25 11:43:54;;;;;;;8.95;3.60;;;;;;;32.99;21.04;100721.16;1764489;81;21256;-41
2022/08/25 11:46:48;;;;;;;5.87;2.72;;;;;;;32.93;21.42;100721.32;1762620;81;20908;-41
2022/08/25 11:49:32;;;;;;;7.17;2.75;;;;;;;32.88;21.03;100719.66;1762695;81;20868;-42
2022/08/25 11:51:59;;;;;;;4.80;1.50;;;;;;;32.91;21.34;100715.81;1733153;82;20959;-41
2022/08/25 11:54:35;;;;;;;2.12;1.40;;;;;;;32.93;21.89;100704.42;1732223;82;20888;-42
2022/08/25 11:57:09;;;;;;;8.85;1.15;;;;;;;33.07;23.54;100722.98;1762691;81;21212;-42